Clever, Missouri
Current Conditions -  °F | °C
As of 9:52 PM on Friday 24 Oct 2014 (Local Time) from KSGF Reporting Station
Clear Clear  
Wind Chill: 61°   Ceiling: Unl
Heat Index: 61°   Visibility: 10mi
Dew Point: 57°   Wind: 7mph
Humidity: 87%   Direction: 180°S
Pressure: 30.06"   Gusts: NA
Location:  37.03°N, 93.47°W
Report Text: KSGF 250252Z 18006KT 10SM CLR 16/14 A3006 RMK AO2 SLP174 T01610139 53007
Loading
Personal Weather Stations






























Interactive Weather Map New forecast layout! Learn more

10-Day Weather Forecast

Advertisements
Track Severe Weather on mobile